createdAt,value
2023-04-10T00:00:06.973Z,8.38
2023-04-10T00:02:34.123Z,8.46
2023-04-10T00:05:01.707Z,8.36
2023-04-10T00:07:28.940Z,8.36
2023-04-10T00:09:56.027Z,8.40
2023-04-10T00:12:23.253Z,8.43
2023-04-10T00:14:50.674Z,8.45
2023-04-10T00:17:17.761Z,8.43
2023-04-10T00:19:44.918Z,8.45
2023-04-10T00:22:12.094Z,8.42
2023-04-10T00:24:39.235Z,8.38
2023-04-10T00:27:06.350Z,8.32
2023-04-10T00:29:33.538Z,8.25
2023-04-10T00:32:00.577Z,8.25
2023-04-10T00:34:27.765Z,8.21
2023-04-10T00:36:54.918Z,8.23
2023-04-10T00:39:21.995Z,8.24
2023-04-10T00:41:49.122Z,8.15
2023-04-10T00:44:16.510Z,8.00
2023-04-10T00:46:43.841Z,8.03
2023-04-10T00:49:11.405Z,8.03
2023-04-10T00:51:39.152Z,7.96
2023-04-10T00:54:06.829Z,7.85
2023-04-10T00:56:34.130Z,7.78
2023-04-10T00:59:05.160Z,7.74
2023-04-10T01:01:33.819Z,7.72
2023-04-10T01:04:01.372Z,7.65
2023-04-10T01:06:32.032Z,7.51
2023-04-10T01:09:34.377Z,7.41
2023-04-10T01:12:31.145Z,7.36
2023-04-10T01:15:13.224Z,7.37
2023-04-10T01:17:55.088Z,7.35
2023-04-10T01:20:36.072Z,7.26
2023-04-10T01:23:21.605Z,7.21
2023-04-10T01:25:48.672Z,7.18
2023-04-10T01:28:25.001Z,7.23
2023-04-10T01:30:58.552Z,7.27
2023-04-10T01:33:43.770Z,7.28
2023-04-10T01:36:11.846Z,7.22
2023-04-10T01:38:44.424Z,7.13
2023-04-10T01:41:12.946Z,7.12
2023-04-10T01:43:41.905Z,7.22
2023-04-10T01:46:10.362Z,7.22
2023-04-10T01:48:37.956Z,7.27
2023-04-10T01:51:08.606Z,7.18
2023-04-10T01:53:36.689Z,7.06
2023-04-10T01:56:05.005Z,7.08
2023-04-10T01:58:39.379Z,7.12
2023-04-10T02:01:07.633Z,7.12
2023-04-10T02:03:35.629Z,7.07
2023-04-10T02:06:18.672Z,7.08
2023-04-10T02:09:21.399Z,7.10
2023-04-10T02:11:56.002Z,6.99
2023-04-10T02:14:28.721Z,6.94
2023-04-10T02:16:56.768Z,6.88
2023-04-10T02:19:25.877Z,6.85
2023-04-10T02:21:53.876Z,6.78
2023-04-10T02:24:21.424Z,6.69
2023-04-10T02:26:50.143Z,6.74
2023-04-10T02:29:18.029Z,6.64
2023-04-10T02:31:46.439Z,6.64
2023-04-10T02:34:14.617Z,6.68
2023-04-10T02:36:42.141Z,6.71
2023-04-10T02:39:11.669Z,6.76
2023-04-10T02:41:47.694Z,6.79
2023-04-10T02:44:15.036Z,6.79
2023-04-10T02:46:43.017Z,6.79
2023-04-10T02:49:11.505Z,6.75
2023-04-10T02:51:38.726Z,6.69
2023-04-10T02:54:06.207Z,6.73
2023-04-10T02:56:35.252Z,6.71
2023-04-10T02:59:02.676Z,6.76
2023-04-10T03:01:31.337Z,6.72
2023-04-10T03:03:59.542Z,6.76
2023-04-10T03:06:33.550Z,6.70
2023-04-10T03:09:00.978Z,6.68
2023-04-10T03:11:28.323Z,6.62
2023-04-10T03:13:56.222Z,6.55
2023-04-10T03:16:23.477Z,6.52
2023-04-10T03:18:50.682Z,6.51
2023-04-10T03:21:17.860Z,6.49
2023-04-10T03:23:44.972Z,6.52
2023-04-10T03:26:12.107Z,6.56
2023-04-10T03:28:39.940Z,6.53
2023-04-10T03:31:10.884Z,6.50
2023-04-10T03:33:39.288Z,6.48
2023-04-10T03:36:07.202Z,6.43
2023-04-10T03:38:34.272Z,6.32
2023-04-10T03:41:01.401Z,6.29
2023-04-10T03:43:34.020Z,6.30
2023-04-10T03:46:03.208Z,6.32
2023-04-10T03:48:30.821Z,6.36
2023-04-10T03:50:58.469Z,6.35
2023-04-10T03:53:25.771Z,6.37
2023-04-10T03:55:54.471Z,6.38
2023-04-10T03:58:23.097Z,6.32
2023-04-10T04:00:51.757Z,6.28
2023-04-10T04:03:31.675Z,6.15
2023-04-10T04:06:28.144Z,6.00
2023-04-10T04:09:10.861Z,5.94
2023-04-10T04:12:04.090Z,5.89
2023-04-10T04:14:49.906Z,6.01
2023-04-10T04:17:37.393Z,6.01
2023-04-10T04:20:06.314Z,5.96
2023-04-10T04:23:11.935Z,5.76
2023-04-10T04:28:41.592Z,5.49
2023-04-10T04:31:22.376Z,5.43
2023-04-10T04:34:07.886Z,5.40
2023-04-10T04:36:53.438Z,5.38
2023-04-10T04:39:40.870Z,5.45
2023-04-10T04:42:20.767Z,5.45
2023-04-10T04:45:01.085Z,5.45
2023-04-10T04:47:28.166Z,5.50
2023-04-10T04:50:07.390Z,5.56
2023-04-10T04:52:49.710Z,5.61
2023-04-10T04:55:35.719Z,5.71
2023-04-10T04:58:41.020Z,5.78
2023-04-10T05:01:17.001Z,5.85
2023-04-10T05:03:58.346Z,5.93
2023-04-10T05:06:38.798Z,5.96
2023-04-10T05:09:17.472Z,5.99
2023-04-10T05:12:01.760Z,5.97
2023-04-10T05:14:49.157Z,6.08
2023-04-10T05:17:42.375Z,6.14
2023-04-10T05:20:41.853Z,6.16
2023-04-10T05:23:25.101Z,6.24
2023-04-10T05:26:06.831Z,6.27
2023-04-10T05:28:57.109Z,6.37
2023-04-10T05:31:24.273Z,6.42
2023-04-10T05:34:08.862Z,6.54
2023-04-10T05:36:59.229Z,6.64
2023-04-10T05:40:05.697Z,6.82
2023-04-10T05:42:51.361Z,6.91
2023-04-10T05:45:31.071Z,7.04
2023-04-10T05:47:58.167Z,7.05
2023-04-10T05:50:44.027Z,7.17
2023-04-10T05:53:37.235Z,7.24
2023-04-10T05:56:24.553Z,7.29
2023-04-10T05:59:17.738Z,7.36
2023-04-10T06:02:14.062Z,7.41
2023-04-10T06:04:41.522Z,7.38
2023-04-10T06:07:08.795Z,7.44
2023-04-10T06:09:36.011Z,7.46
2023-04-10T06:12:06.166Z,7.52
2023-04-10T06:14:33.591Z,7.63
2023-04-10T06:17:01.362Z,7.72
2023-04-10T06:19:28.762Z,7.84
2023-04-10T06:21:56.793Z,7.91
2023-04-10T06:24:24.206Z,7.98
2023-04-10T06:26:52.029Z,8.07
2023-04-10T06:29:19.284Z,8.13
2023-04-10T06:31:46.746Z,8.24
2023-04-10T06:34:13.932Z,8.25
2023-04-10T06:36:52.146Z,8.22
2023-04-10T06:39:20.441Z,8.18
2023-04-10T06:41:48.310Z,8.19
2023-04-10T06:44:28.537Z,8.16
2023-04-10T06:46:55.828Z,8.16
2023-04-10T06:49:23.304Z,8.21
2023-04-10T06:51:50.716Z,8.26
2023-04-10T06:54:18.550Z,8.32
2023-04-10T06:56:45.677Z,8.38
2023-04-10T06:59:12.749Z,8.43
2023-04-10T07:01:40.002Z,8.61
2023-04-10T07:04:07.382Z,8.86
2023-04-10T07:06:34.575Z,9.11
2023-04-10T07:09:01.711Z,9.35
2023-04-10T07:11:28.852Z,9.59
2023-04-10T07:13:58.720Z,9.77
2023-04-10T07:16:26.175Z,9.92
2023-04-10T07:18:53.523Z,10.09
2023-04-10T07:21:21.591Z,10.27
2023-04-10T07:23:48.804Z,10.41
2023-04-10T07:26:16.029Z,10.60
2023-04-10T07:28:43.408Z,10.62
2023-04-10T07:31:11.650Z,10.74
2023-04-10T07:33:39.103Z,10.83
2023-04-10T07:36:07.218Z,10.86
2023-04-10T07:38:34.565Z,11.12
2023-04-10T07:41:01.703Z,11.14
2023-04-10T07:43:28.820Z,11.35
2023-04-10T07:45:56.577Z,11.50
2023-04-10T07:48:23.993Z,11.65
2023-04-10T07:50:51.432Z,11.76
2023-04-10T07:53:18.770Z,11.90
2023-04-10T07:55:49.426Z,12.03
2023-04-10T07:58:16.744Z,12.10
2023-04-10T08:00:43.918Z,12.27
2023-04-10T08:03:13.457Z,12.52
2023-04-10T08:05:40.818Z,12.77
2023-04-10T08:08:08.150Z,12.94
2023-04-10T08:10:39.576Z,13.12
2023-04-10T08:13:06.912Z,13.25
2023-04-10T08:15:34.010Z,13.46
2023-04-10T08:18:01.185Z,13.66
2023-04-10T08:20:28.746Z,13.80
2023-04-10T08:22:58.938Z,13.92
2023-04-10T08:25:31.450Z,14.04
2023-04-10T08:28:00.664Z,14.15
2023-04-10T08:30:27.803Z,14.22
2023-04-10T08:32:54.916Z,14.27
2023-04-10T08:35:22.061Z,14.35
2023-04-10T08:37:50.051Z,14.43
2023-04-10T08:40:29.535Z,14.66
2023-04-10T08:42:56.667Z,14.71
2023-04-10T08:45:23.792Z,14.75
2023-04-10T08:47:53.580Z,14.58
2023-04-10T08:50:21.877Z,14.67
2023-04-10T08:52:53.072Z,14.72
2023-04-10T08:55:21.784Z,14.79
2023-04-10T08:57:57.994Z,14.85
2023-04-10T09:00:29.188Z,15.01
2023-04-10T09:02:58.640Z,15.15
2023-04-10T09:05:29.500Z,15.22
2023-04-10T09:07:57.248Z,15.34
2023-04-10T09:10:24.395Z,15.43
2023-04-10T09:12:52.675Z,15.50
2023-04-10T09:15:20.935Z,15.46
2023-04-10T09:18:04.141Z,15.38
2023-04-10T09:20:33.450Z,15.37
2023-04-10T09:23:02.004Z,15.40
2023-04-10T09:25:34.606Z,15.47
2023-04-10T09:28:10.850Z,15.66
2023-04-10T09:30:40.355Z,15.76
2023-04-10T09:33:36.345Z,15.73
2023-04-10T09:36:04.473Z,15.86
2023-04-10T09:38:31.571Z,15.78
2023-04-10T09:41:08.105Z,15.83
2023-04-10T09:43:35.810Z,15.62
2023-04-10T09:46:02.837Z,16.01
2023-04-10T09:48:29.841Z,16.01
2023-04-10T09:50:59.373Z,16.04
2023-04-10T09:53:29.186Z,16.13
2023-04-10T09:55:57.395Z,16.13
2023-04-10T09:58:25.554Z,16.14
2023-04-10T10:00:53.319Z,16.21
2023-04-10T10:04:48.738Z,16.20
2023-04-10T10:07:17.204Z,16.10
2023-04-10T10:09:46.317Z,16.11
2023-04-10T10:12:18.060Z,15.88
2023-04-10T10:15:01.439Z,15.46
2023-04-10T10:17:34.855Z,15.14
2023-04-10T10:20:05.912Z,14.98
2023-04-10T10:22:33.313Z,14.98
2023-04-10T10:25:02.089Z,15.21
2023-04-10T10:27:32.776Z,15.42
2023-04-10T10:30:03.051Z,15.71
2023-04-10T10:32:35.933Z,16.02
2023-04-10T10:35:08.079Z,16.23
2023-04-10T10:37:36.050Z,16.28
2023-04-10T10:40:25.197Z,16.41
2023-04-10T10:42:58.619Z,16.72
2023-04-10T10:45:38.103Z,16.82
2023-04-10T10:48:07.078Z,16.84
2023-04-10T10:50:59.173Z,17.03
2023-04-10T10:53:40.632Z,17.28
2023-04-10T10:56:19.871Z,17.18
2023-04-10T10:58:48.101Z,16.87
2023-04-10T11:01:16.357Z,16.65
2023-04-10T11:03:47.251Z,16.42
2023-04-10T11:06:19.813Z,16.39
2023-04-10T11:08:55.156Z,16.57
2023-04-10T11:11:27.609Z,16.90
2023-04-10T11:13:57.803Z,16.90
2023-04-10T11:16:42.166Z,16.82
2023-04-10T11:19:15.890Z,17.05
2023-04-10T11:22:05.955Z,17.14
2023-04-10T11:24:56.492Z,17.30
2023-04-10T11:27:39.564Z,17.28
2023-04-10T11:30:29.341Z,17.44
2023-04-10T11:32:57.074Z,17.53
2023-04-10T11:35:25.991Z,17.56
2023-04-10T11:37:53.220Z,17.71
2023-04-10T11:40:20.649Z,17.72
2023-04-10T11:42:48.496Z,17.76
2023-04-10T11:45:26.818Z,17.72
2023-04-10T11:47:55.201Z,17.92
2023-04-10T11:50:22.472Z,18.09
2023-04-10T11:52:54.668Z,18.17
2023-04-10T11:55:38.097Z,18.28
2023-04-10T11:58:05.216Z,18.35
2023-04-10T12:00:32.442Z,18.35
2023-04-10T12:02:59.782Z,18.36
2023-04-10T12:05:27.232Z,18.37
2023-04-10T12:07:55.949Z,18.39
2023-04-10T12:10:23.012Z,18.33
2023-04-10T12:12:50.376Z,18.22
2023-04-10T12:15:27.745Z,18.40
2023-04-10T12:17:55.851Z,18.44
2023-04-10T12:20:26.825Z,18.33
2023-04-10T12:22:57.007Z,18.30
2023-04-10T12:25:24.396Z,18.13
2023-04-10T12:27:51.997Z,17.94
2023-04-10T12:30:19.287Z,17.65
2023-04-10T12:32:55.132Z,17.37
2023-04-10T12:35:38.933Z,17.06
2023-04-10T12:38:06.260Z,16.86
2023-04-10T12:40:33.446Z,16.77
2023-04-10T12:43:00.501Z,16.93
2023-04-10T12:45:44.081Z,17.09
2023-04-10T12:48:11.398Z,17.10
2023-04-10T12:50:48.492Z,17.12
2023-04-10T12:53:15.978Z,17.19
2023-04-10T12:56:06.617Z,17.27
2023-04-10T12:58:33.905Z,17.41
2023-04-10T13:01:06.466Z,17.49
2023-04-10T13:03:38.247Z,17.54
2023-04-10T13:06:07.616Z,17.53
2023-04-10T13:08:35.760Z,17.53
2023-04-10T13:11:03.865Z,17.58
2023-04-10T13:13:33.026Z,17.59
2023-04-10T13:16:00.668Z,17.66
2023-04-10T13:18:27.950Z,17.75
2023-04-10T13:20:55.058Z,17.80
2023-04-10T13:23:22.283Z,17.82
2023-04-10T13:25:49.526Z,17.81
2023-04-10T13:28:19.027Z,17.79
2023-04-10T13:30:46.044Z,17.65
2023-04-10T13:33:13.211Z,17.58
2023-04-10T13:35:40.629Z,17.56
2023-04-10T13:38:09.524Z,17.57
2023-04-10T13:40:36.914Z,17.56
2023-04-10T13:43:04.435Z,17.53
2023-04-10T13:45:31.505Z,17.47
2023-04-10T13:47:58.597Z,17.43
2023-04-10T13:50:25.784Z,17.38
2023-04-10T13:52:53.854Z,17.33
2023-04-10T13:55:21.139Z,17.25
2023-04-10T13:57:48.202Z,17.19
2023-04-10T14:00:15.872Z,17.18
2023-04-10T14:02:43.661Z,17.18
2023-04-10T14:05:11.012Z,17.21
2023-04-10T14:07:38.127Z,17.11
2023-04-10T14:10:05.862Z,17.03
2023-04-10T14:12:32.935Z,17.03
2023-04-10T14:15:00.293Z,17.01
2023-04-10T14:17:28.300Z,17.07
2023-04-10T14:19:55.872Z,17.06
2023-04-10T14:22:23.176Z,17.01
2023-04-10T14:24:52.584Z,16.92
2023-04-10T14:27:23.561Z,16.87
2023-04-10T14:29:54.698Z,16.84
2023-04-10T14:32:22.780Z,16.80
2023-04-10T14:34:50.081Z,16.80
2023-04-10T14:37:19.285Z,16.81
2023-04-10T14:39:46.529Z,16.76
2023-04-10T14:42:13.790Z,16.71
2023-04-10T14:44:40.897Z,16.67
2023-04-10T14:47:08.275Z,16.63
2023-04-10T14:49:35.378Z,16.63
2023-04-10T14:52:02.408Z,16.65
2023-04-10T14:54:29.567Z,16.62
2023-04-10T14:56:58.498Z,16.52
2023-04-10T14:59:25.646Z,16.53
2023-04-10T15:01:54.253Z,16.39
2023-04-10T15:04:21.617Z,16.40
2023-04-10T15:06:48.863Z,16.36
2023-04-10T15:09:16.080Z,16.29
2023-04-10T15:11:43.149Z,16.25
2023-04-10T15:14:12.379Z,16.24
2023-04-10T15:16:39.628Z,16.25
2023-04-10T15:19:06.799Z,16.23
2023-04-10T15:21:34.378Z,16.24
2023-04-10T15:24:01.544Z,16.18
2023-04-10T15:26:28.642Z,16.15
2023-04-10T15:28:55.706Z,16.15
2023-04-10T15:31:24.325Z,16.05
2023-04-10T15:33:52.600Z,16.06
2023-04-10T15:36:19.967Z,15.98
2023-04-10T15:38:49.939Z,16.00
2023-04-10T15:41:17.617Z,15.97
2023-04-10T15:43:46.210Z,15.94
2023-04-10T15:46:14.318Z,15.91
2023-04-10T15:48:41.607Z,15.82
2023-04-10T15:51:08.893Z,15.90
2023-04-10T15:53:36.283Z,15.82
2023-04-10T15:56:07.581Z,15.83
2023-04-10T15:58:35.205Z,15.80
2023-04-10T16:01:02.525Z,15.73
2023-04-10T16:03:30.646Z,15.74
2023-04-10T16:05:58.605Z,15.74
2023-04-10T16:08:26.565Z,15.72
2023-04-10T16:10:54.422Z,15.67
2023-04-10T16:13:21.669Z,15.60
2023-04-10T16:15:49.707Z,15.58
2023-04-10T16:18:16.848Z,15.50
2023-04-10T16:20:44.153Z,15.44
2023-04-10T16:23:11.698Z,15.36
2023-04-10T16:25:38.883Z,15.36
2023-04-10T16:28:08.409Z,15.31
2023-04-10T16:30:36.477Z,15.24
2023-04-10T16:33:04.474Z,15.18
2023-04-10T16:35:31.844Z,15.17
2023-04-10T16:37:59.216Z,15.14
2023-04-10T16:40:32.810Z,15.09
2023-04-10T16:43:01.210Z,15.02
2023-04-10T16:45:28.304Z,15.02
2023-04-10T16:47:55.835Z,14.98
2023-04-10T16:50:23.229Z,14.92
2023-04-10T16:52:50.553Z,14.88
2023-04-10T16:55:17.765Z,14.81
2023-04-10T16:57:44.958Z,14.75
2023-04-10T17:00:12.462Z,14.73
2023-04-10T17:02:39.548Z,14.65
2023-04-10T17:05:06.904Z,14.58
2023-04-10T17:07:34.343Z,14.51
2023-04-10T17:10:01.722Z,14.34
2023-04-10T17:12:28.961Z,14.37
2023-04-10T17:14:56.376Z,14.29
2023-04-10T17:17:23.861Z,14.20
2023-04-10T17:19:51.142Z,14.11
2023-04-10T17:22:18.303Z,14.01
2023-04-10T17:24:46.630Z,13.94
2023-04-10T17:27:14.450Z,13.86
2023-04-10T17:29:41.977Z,13.75
2023-04-10T17:32:10.814Z,13.67
2023-04-10T17:34:38.775Z,13.59
2023-04-10T17:37:05.927Z,13.52
2023-04-10T17:39:33.267Z,13.44
2023-04-10T17:42:00.845Z,13.28
2023-04-10T17:44:28.061Z,13.25
2023-04-10T17:46:55.446Z,13.18
2023-04-10T17:49:23.037Z,13.10
2023-04-10T17:51:50.409Z,13.05
2023-04-10T17:54:17.731Z,12.96
2023-04-10T17:56:45.077Z,12.93
2023-04-10T17:59:12.360Z,12.88
2023-04-10T18:01:39.973Z,12.84
2023-04-10T18:04:07.580Z,12.76
2023-04-10T18:06:35.420Z,12.74
2023-04-10T18:09:02.764Z,12.68
2023-04-10T18:11:30.125Z,12.62
2023-04-10T18:13:57.316Z,12.55
2023-04-10T18:16:24.665Z,12.52
2023-04-10T18:18:52.212Z,12.48
2023-04-10T18:21:19.633Z,12.41
2023-04-10T18:23:46.763Z,12.32
2023-04-10T18:26:14.235Z,12.27
2023-04-10T18:28:43.407Z,12.20
2023-04-10T18:31:12.797Z,12.16
2023-04-10T18:33:39.971Z,12.11
2023-04-10T18:36:07.697Z,11.94
2023-04-10T18:38:35.114Z,12.04
2023-04-10T18:41:02.298Z,11.98
2023-04-10T18:43:29.620Z,11.92
2023-04-10T18:45:57.762Z,11.89
2023-04-10T18:48:24.986Z,11.83
2023-04-10T18:50:53.510Z,11.80
2023-04-10T18:53:21.553Z,11.74
2023-04-10T18:55:50.966Z,11.64
2023-04-10T18:58:19.398Z,11.59
2023-04-10T19:00:46.601Z,11.51
2023-04-10T19:03:14.533Z,11.50
2023-04-10T19:05:43.470Z,11.58
2023-04-10T19:08:16.910Z,11.59
2023-04-10T19:10:44.077Z,11.61
2023-04-10T19:13:12.869Z,11.60
2023-04-10T19:15:44.815Z,11.59
2023-04-10T19:18:14.824Z,11.57
2023-04-10T19:20:50.892Z,11.56
2023-04-10T19:23:21.173Z,11.50
2023-04-10T19:25:55.072Z,11.47
2023-04-10T19:28:26.426Z,11.45
2023-04-10T19:30:57.764Z,11.42
2023-04-10T19:33:25.650Z,11.41
2023-04-10T19:35:52.918Z,11.38
2023-04-10T19:38:20.195Z,11.39
2023-04-10T19:40:47.629Z,11.37
2023-04-10T19:43:14.882Z,11.33
2023-04-10T19:45:42.235Z,11.29
2023-04-10T19:48:10.023Z,11.33
2023-04-10T19:50:37.125Z,11.35
2023-04-10T19:53:04.701Z,11.27
2023-04-10T19:55:31.842Z,11.24
2023-04-10T19:57:59.209Z,11.25
2023-04-10T20:00:26.422Z,11.26
2023-04-10T20:02:54.017Z,11.22
2023-04-10T20:05:21.503Z,11.17
2023-04-10T20:07:48.651Z,11.11
2023-04-10T20:10:15.752Z,11.05
2023-04-10T20:12:42.821Z,10.99
2023-04-10T20:15:10.510Z,10.90
2023-04-10T20:17:38.851Z,10.91
2023-04-10T20:20:06.587Z,10.93
2023-04-10T20:22:33.780Z,10.96
2023-04-10T20:25:00.893Z,10.95
2023-04-10T20:27:28.009Z,10.89
2023-04-10T20:29:55.072Z,10.93
2023-04-10T20:32:22.247Z,10.90
2023-04-10T20:34:49.388Z,10.87
2023-04-10T20:37:21.907Z,10.87
2023-04-10T20:39:49.491Z,10.89
2023-04-10T20:42:17.377Z,10.89
2023-04-10T20:44:44.718Z,10.90
2023-04-10T20:47:12.029Z,10.88
2023-04-10T20:49:39.323Z,10.80
2023-04-10T20:52:07.343Z,10.77
2023-04-10T20:54:34.586Z,10.75
2023-04-10T20:57:02.046Z,10.69
2023-04-10T20:59:29.752Z,10.61
2023-04-10T21:01:57.113Z,10.63
2023-04-10T21:04:24.312Z,10.59
2023-04-10T21:06:51.523Z,10.52
2023-04-10T21:09:18.847Z,10.50
2023-04-10T21:11:46.235Z,10.52
2023-04-10T21:14:13.860Z,10.50
2023-04-10T21:16:42.750Z,10.48
2023-04-10T21:19:10.038Z,10.46
2023-04-10T21:21:37.359Z,10.45
2023-04-10T21:24:04.946Z,10.44
2023-04-10T21:26:32.118Z,10.40
2023-04-10T21:28:59.202Z,10.34
2023-04-10T21:31:26.475Z,10.32
2023-04-10T21:33:53.661Z,10.27
2023-04-10T21:36:21.029Z,10.08
2023-04-10T21:38:48.082Z,10.13
2023-04-10T21:41:15.658Z,10.09
2023-04-10T21:43:43.356Z,10.08
2023-04-10T21:46:11.127Z,10.02
2023-04-10T21:48:38.343Z,10.08
2023-04-10T21:51:05.995Z,10.06
2023-04-10T21:53:33.103Z,10.08
2023-04-10T21:56:00.125Z,10.08
2023-04-10T21:58:27.148Z,10.12
2023-04-10T22:00:54.747Z,10.06
2023-04-10T22:03:22.458Z,10.12
2023-04-10T22:05:50.733Z,10.11
2023-04-10T22:08:20.148Z,10.07
2023-04-10T22:10:48.250Z,10.03
2023-04-10T22:13:27.478Z,10.07
2023-04-10T22:15:58.302Z,10.09
2023-04-10T22:18:25.393Z,10.09
2023-04-10T22:20:52.496Z,10.04
2023-04-10T22:23:19.635Z,10.05
2023-04-10T22:25:47.733Z,10.01
2023-04-10T22:28:15.244Z,10.02
2023-04-10T22:30:42.349Z,10.00
2023-04-10T22:33:12.055Z,10.02
2023-04-10T22:35:39.266Z,9.94
2023-04-10T22:38:07.880Z,10.00
2023-04-10T22:40:35.191Z,10.01
2023-04-10T22:43:02.710Z,10.00
2023-04-10T22:45:30.782Z,9.98
2023-04-10T22:47:58.497Z,9.98
2023-04-10T22:50:26.295Z,9.98
2023-04-10T22:52:53.817Z,9.97
2023-04-10T22:55:21.348Z,9.96
2023-04-10T22:57:51.420Z,9.94
2023-04-10T23:00:20.105Z,9.93
2023-04-10T23:02:51.655Z,9.90
2023-04-10T23:05:19.646Z,9.87
2023-04-10T23:07:49.994Z,9.85
2023-04-10T23:10:17.321Z,9.79
2023-04-10T23:12:44.870Z,9.80
2023-04-10T23:15:15.798Z,9.83
2023-04-10T23:17:44.886Z,9.83
2023-04-10T23:20:12.843Z,9.83
2023-04-10T23:22:55.398Z,9.73
2023-04-10T23:25:23.167Z,9.76
2023-04-10T23:27:56.541Z,9.76
2023-04-10T23:30:24.049Z,9.76
2023-04-10T23:32:51.574Z,9.75
2023-04-10T23:35:21.908Z,9.76
2023-04-10T23:37:52.974Z,9.77
2023-04-10T23:40:21.800Z,9.67
2023-04-10T23:42:49.350Z,9.71
2023-04-10T23:45:16.962Z,9.70
2023-04-10T23:47:44.322Z,9.70
2023-04-10T23:50:11.661Z,9.70
2023-04-10T23:52:38.968Z,9.70
2023-04-10T23:55:06.836Z,9.65
2023-04-10T23:57:33.983Z,9.70
